createdAt,value
2019-03-26T00:01:26.181Z,10.50
2019-03-26T00:04:06.109Z,12.93
2019-03-26T00:06:37.840Z,9.57
2019-03-26T00:09:13.945Z,10.03
2019-03-26T00:11:49.452Z,8.67
2019-03-26T00:14:24.889Z,9.23
2019-03-26T00:16:59.781Z,11.68
2019-03-26T00:19:35.592Z,9.97
2019-03-26T00:22:11.642Z,9.08
2019-03-26T00:24:46.759Z,8.17
2019-03-26T00:27:21.761Z,8.90
2019-03-26T00:29:57.365Z,8.98
2019-03-26T00:32:32.475Z,8.67
2019-03-26T00:35:07.486Z,9.73
2019-03-26T00:37:42.975Z,7.93
2019-03-26T00:40:18.219Z,8.33
2019-03-26T00:42:53.697Z,8.13
2019-03-26T00:45:28.921Z,8.67
2019-03-26T00:48:04.564Z,13.47
2019-03-26T00:50:39.644Z,8.47
2019-03-26T00:53:14.701Z,9.33
2019-03-26T00:55:50.360Z,9.35
2019-03-26T00:58:25.438Z,8.63
2019-03-26T01:01:01.542Z,8.17
2019-03-26T01:03:36.614Z,11.90
2019-03-26T01:06:11.873Z,10.25
2019-03-26T01:08:46.712Z,8.63
2019-03-26T01:11:21.806Z,8.73
2019-03-26T01:13:57.073Z,8.15
2019-03-26T01:16:32.402Z,9.20
2019-03-26T01:19:07.345Z,7.93
2019-03-26T01:21:42.687Z,7.80
2019-03-26T01:24:18.305Z,8.55
2019-03-26T01:26:53.342Z,7.47
2019-03-26T01:29:28.898Z,6.95
2019-03-26T01:32:04.146Z,6.22
2019-03-26T01:34:45.807Z,8.58
2019-03-26T01:37:16.267Z,6.15
2019-03-26T01:39:51.578Z,6.70
2019-03-26T01:42:27.014Z,6.70
2019-03-26T01:45:02.370Z,7.78
2019-03-26T01:47:37.869Z,7.47
2019-03-26T01:50:13.303Z,7.20
2019-03-26T01:52:49.067Z,7.78
2019-03-26T01:55:24.390Z,6.12
2019-03-26T01:57:59.190Z,5.58
2019-03-26T02:00:34.941Z,7.85
2019-03-26T02:03:11.944Z,6.00
2019-03-26T02:05:47.167Z,5.85
2019-03-26T02:08:23.100Z,5.40
2019-03-26T02:10:58.355Z,4.50
2019-03-26T02:13:33.379Z,4.87
2019-03-26T02:16:08.339Z,6.75
2019-03-26T02:18:43.924Z,5.03
2019-03-26T02:21:19.655Z,6.67
2019-03-26T02:23:54.571Z,6.37
2019-03-26T02:26:29.907Z,6.83
2019-03-26T02:29:05.365Z,6.12
2019-03-26T02:31:40.007Z,7.67
2019-03-26T02:34:15.857Z,5.97
2019-03-26T02:36:50.429Z,7.33
2019-03-26T02:39:25.681Z,6.83
2019-03-26T02:42:01.910Z,6.70
2019-03-26T02:44:36.907Z,7.20
2019-03-26T02:47:12.158Z,7.10
2019-03-26T02:49:47.489Z,8.63
2019-03-26T02:52:22.542Z,7.42
2019-03-26T02:54:57.727Z,7.62
2019-03-26T02:57:33.465Z,8.43
2019-03-26T03:00:07.942Z,8.48
2019-03-26T03:02:42.730Z,10.70
2019-03-26T03:05:33.784Z,10.15
2019-03-26T03:07:54.140Z,9.77
2019-03-26T03:10:29.704Z,8.33
2019-03-26T03:13:05.285Z,8.88
2019-03-26T03:15:40.165Z,9.45
2019-03-26T03:18:16.328Z,9.00
2019-03-26T03:20:51.663Z,10.13
2019-03-26T03:23:26.765Z,8.00
2019-03-26T03:26:01.410Z,6.60
2019-03-26T03:28:36.150Z,6.40
2019-03-26T03:31:11.398Z,7.70
2019-03-26T03:33:46.941Z,7.15
2019-03-26T03:36:22.363Z,8.23
2019-03-26T03:38:57.511Z,6.70
2019-03-26T03:41:33.046Z,6.83
2019-03-26T03:44:08.772Z,6.58
2019-03-26T03:46:44.182Z,6.78
2019-03-26T03:49:19.202Z,6.65
2019-03-26T03:51:54.060Z,6.42
2019-03-26T03:54:30.455Z,7.08
2019-03-26T03:57:05.401Z,6.47
2019-03-26T03:59:41.307Z,6.17
2019-03-26T04:02:16.776Z,6.07
2019-03-26T04:04:51.844Z,6.05
2019-03-26T04:07:27.018Z,6.37
2019-03-26T04:10:04.942Z,5.95
2019-03-26T04:12:40.169Z,6.15
2019-03-26T04:15:15.626Z,6.03
2019-03-26T04:17:51.023Z,5.28
2019-03-26T04:20:26.699Z,5.78
2019-03-26T04:23:02.106Z,5.95
2019-03-26T04:25:37.155Z,6.00
2019-03-26T04:28:12.355Z,6.47
2019-03-26T04:30:47.555Z,6.15
2019-03-26T04:33:22.403Z,8.05
2019-03-26T04:35:57.676Z,9.53
2019-03-26T04:38:32.573Z,7.30
2019-03-26T04:41:07.664Z,7.70
2019-03-26T04:43:43.168Z,7.10
2019-03-26T04:46:18.214Z,7.53
2019-03-26T04:48:53.611Z,7.33
2019-03-26T04:51:28.991Z,7.95
2019-03-26T04:54:04.075Z,7.60
2019-03-26T04:56:39.647Z,7.83
2019-03-26T04:59:14.597Z,8.48
2019-03-26T05:01:49.899Z,7.35
2019-03-26T05:04:25.287Z,7.97
2019-03-26T05:07:00.350Z,9.25
2019-03-26T05:09:35.594Z,7.17
2019-03-26T05:12:10.980Z,7.35
2019-03-26T05:14:46.040Z,8.05
2019-03-26T05:17:21.973Z,7.70
2019-03-26T05:19:57.012Z,7.75
2019-03-26T05:22:32.324Z,8.85
2019-03-26T05:25:07.826Z,8.30
2019-03-26T05:27:45.729Z,8.93
2019-03-26T05:30:19.395Z,8.35
2019-03-26T05:32:54.824Z,7.62
2019-03-26T05:35:30.098Z,7.05
2019-03-26T05:38:05.250Z,6.95
2019-03-26T05:40:40.785Z,7.78
2019-03-26T05:43:15.843Z,7.58
2019-03-26T05:45:51.073Z,8.40
2019-03-26T05:48:26.296Z,7.83
2019-03-26T05:51:01.184Z,8.40
2019-03-26T05:53:36.219Z,6.70
2019-03-26T05:56:11.515Z,7.75
2019-03-26T05:58:46.199Z,7.60
2019-03-26T06:01:39.358Z,7.90
2019-03-26T06:04:14.959Z,6.95
2019-03-26T06:06:50.210Z,6.83
2019-03-26T06:09:25.619Z,7.20
2019-03-26T06:12:01.154Z,7.25
2019-03-26T06:14:36.067Z,7.25
2019-03-26T06:17:10.956Z,7.15
2019-03-26T06:19:46.760Z,6.85
2019-03-26T06:22:21.375Z,7.22
2019-03-26T06:24:56.749Z,7.40
2019-03-26T06:27:32.035Z,6.40
2019-03-26T06:30:07.619Z,7.83
2019-03-26T06:32:43.242Z,7.10
2019-03-26T06:35:18.396Z,7.05
2019-03-26T06:37:53.743Z,8.25
2019-03-26T06:40:28.599Z,7.50
2019-03-26T06:43:04.087Z,6.87
2019-03-26T06:45:39.366Z,9.05
2019-03-26T06:48:14.418Z,7.40
2019-03-26T06:50:50.451Z,7.78
2019-03-26T06:53:25.614Z,7.72
2019-03-26T06:56:01.141Z,7.95
2019-03-26T06:58:35.778Z,8.48
2019-03-26T07:01:11.559Z,7.62
2019-03-26T07:03:47.016Z,8.68
2019-03-26T07:06:21.544Z,7.40
2019-03-26T07:08:57.400Z,9.23
2019-03-26T07:11:32.110Z,7.78
2019-03-26T07:14:06.972Z,7.33
2019-03-26T07:16:42.355Z,7.08
2019-03-26T07:19:18.234Z,6.70
2019-03-26T07:21:53.643Z,6.53
2019-03-26T07:24:28.896Z,6.40
2019-03-26T07:27:03.888Z,5.75
2019-03-26T07:29:40.640Z,5.95
2019-03-26T07:32:16.115Z,5.35
2019-03-26T07:34:51.428Z,5.53
2019-03-26T07:37:26.503Z,5.95
2019-03-26T07:40:01.878Z,5.12
2019-03-26T07:42:36.736Z,5.28
2019-03-26T07:45:12.428Z,5.62
2019-03-26T07:47:47.570Z,6.08
2019-03-26T07:50:22.921Z,5.47
2019-03-26T07:52:57.754Z,5.40
2019-03-26T07:55:32.746Z,5.62
2019-03-26T07:58:07.996Z,5.40
2019-03-26T08:00:43.612Z,5.08
2019-03-26T08:03:21.076Z,5.25
2019-03-26T08:05:55.439Z,5.60
2019-03-26T08:08:31.197Z,5.58
2019-03-26T08:11:06.264Z,5.30
2019-03-26T08:13:41.717Z,4.97
2019-03-26T08:16:16.964Z,5.78
2019-03-26T08:18:52.300Z,5.75
2019-03-26T08:21:27.016Z,5.92
2019-03-26T08:24:02.713Z,5.67
2019-03-26T08:26:38.164Z,5.53
2019-03-26T08:29:15.692Z,4.67
2019-03-26T08:31:51.254Z,5.33
2019-03-26T08:34:27.075Z,5.87
2019-03-26T08:37:04.970Z,5.17
2019-03-26T08:39:39.829Z,5.67
2019-03-26T08:42:15.323Z,4.95
2019-03-26T08:44:50.499Z,5.78
2019-03-26T08:47:25.955Z,7.92
2019-03-26T08:50:03.537Z,6.10
2019-03-26T08:52:38.724Z,5.10
2019-03-26T08:55:14.200Z,6.72
2019-03-26T08:57:49.307Z,6.10
2019-03-26T09:00:24.380Z,7.58
2019-03-26T09:03:00.299Z,7.35
2019-03-26T09:05:40.987Z,7.90
2019-03-26T09:08:25.375Z,8.63
2019-03-26T09:10:52.952Z,9.45
2019-03-26T09:13:27.971Z,9.83
2019-03-26T09:16:04.002Z,10.40
2019-03-26T09:18:39.144Z,11.40
2019-03-26T09:21:13.845Z,10.63
2019-03-26T09:23:49.065Z,9.88
2019-03-26T09:26:24.392Z,9.60
2019-03-26T09:28:59.679Z,9.30
2019-03-26T09:31:35.018Z,9.55
2019-03-26T09:34:10.591Z,9.85
2019-03-26T09:36:46.272Z,10.30
2019-03-26T09:39:21.236Z,9.33
2019-03-26T09:41:56.419Z,9.43
2019-03-26T09:44:31.692Z,9.78
2019-03-26T09:47:16.090Z,9.18
2019-03-26T09:49:43.160Z,9.98
2019-03-26T09:52:19.506Z,10.78
2019-03-26T09:54:54.909Z,11.35
2019-03-26T09:57:34.541Z,10.53
2019-03-26T10:00:10.502Z,11.22
2019-03-26T10:02:45.576Z,12.13
2019-03-26T10:05:20.475Z,12.10
2019-03-26T10:07:55.463Z,12.10
2019-03-26T10:10:30.785Z,12.33
2019-03-26T10:13:06.032Z,11.53
2019-03-26T10:15:42.234Z,10.93
2019-03-26T10:18:16.960Z,10.90
2019-03-26T10:20:52.406Z,11.08
2019-03-26T10:23:27.627Z,9.95
2019-03-26T10:26:03.327Z,10.85
2019-03-26T10:28:38.311Z,10.78
2019-03-26T10:31:15.407Z,10.75
2019-03-26T10:33:50.893Z,10.68
2019-03-26T10:36:26.408Z,11.00
2019-03-26T10:41:38.325Z,11.40
2019-03-26T10:44:13.482Z,9.83
2019-03-26T10:46:48.796Z,10.38
2019-03-26T10:49:24.096Z,9.63
2019-03-26T10:51:59.465Z,10.13
2019-03-26T10:54:34.500Z,9.23
2019-03-26T10:57:09.551Z,9.50
2019-03-26T10:59:44.754Z,8.50
2019-03-26T11:02:20.136Z,8.85
2019-03-26T11:04:55.042Z,8.58
2019-03-26T11:07:30.320Z,7.47
2019-03-26T11:10:05.756Z,8.48
2019-03-26T11:12:41.583Z,7.60
2019-03-26T11:15:16.656Z,8.83
2019-03-26T11:17:51.968Z,7.30
2019-03-26T11:20:28.428Z,7.25
2019-03-26T11:23:04.212Z,7.47
2019-03-26T11:25:39.551Z,7.12
2019-03-26T11:28:14.262Z,8.00
2019-03-26T11:30:49.894Z,7.40
2019-03-26T11:33:24.680Z,7.53
2019-03-26T11:35:59.925Z,7.60
2019-03-26T11:38:35.312Z,7.08
2019-03-26T11:41:10.347Z,6.15
2019-03-26T11:43:45.650Z,6.45
2019-03-26T11:46:21.409Z,7.15
2019-03-26T11:48:56.378Z,7.08
2019-03-26T11:51:32.601Z,6.90
2019-03-26T11:54:08.253Z,7.12
2019-03-26T11:56:43.253Z,9.05
2019-03-26T11:59:18.202Z,7.33
2019-03-26T12:01:53.661Z,7.45
2019-03-26T12:04:28.840Z,8.58
2019-03-26T12:07:04.886Z,10.90
2019-03-26T12:09:46.048Z,10.68
2019-03-26T12:12:16.948Z,9.55
2019-03-26T12:14:52.231Z,11.55
2019-03-26T12:17:27.713Z,11.38
2019-03-26T12:20:02.890Z,9.85
2019-03-26T12:22:38.118Z,13.00
2019-03-26T12:25:13.083Z,11.27
2019-03-26T12:27:48.359Z,11.17
2019-03-26T12:30:38.183Z,10.25
2019-03-26T12:33:13.156Z,10.20
2019-03-26T12:35:48.506Z,11.70
2019-03-26T12:38:27.120Z,12.60
2019-03-26T12:41:02.110Z,11.12
2019-03-26T12:43:37.180Z,10.82
2019-03-26T12:46:13.282Z,11.33
2019-03-26T12:48:48.256Z,10.75
2019-03-26T12:51:23.081Z,10.88
2019-03-26T12:53:58.357Z,9.60
2019-03-26T12:56:33.588Z,9.70
2019-03-26T12:59:09.020Z,9.10
2019-03-26T13:01:44.758Z,7.85
2019-03-26T13:04:20.218Z,8.18
2019-03-26T13:06:55.374Z,8.15
2019-03-26T13:09:30.623Z,8.87
2019-03-26T13:12:06.493Z,8.68
2019-03-26T13:14:41.963Z,9.28
2019-03-26T13:17:17.603Z,8.55
2019-03-26T13:19:53.227Z,8.90
2019-03-26T13:22:28.285Z,9.48
2019-03-26T13:25:03.898Z,9.00
2019-03-26T13:27:40.005Z,9.25
2019-03-26T13:30:16.349Z,8.65
2019-03-26T13:32:51.504Z,7.85
2019-03-26T13:35:26.594Z,8.87
2019-03-26T13:38:02.471Z,9.78
2019-03-26T13:40:37.994Z,10.00
2019-03-26T13:43:12.962Z,10.65
2019-03-26T13:45:48.878Z,11.25
2019-03-26T13:48:23.995Z,10.50
2019-03-26T13:50:59.206Z,10.28
2019-03-26T13:53:34.431Z,12.00
2019-03-26T13:56:09.602Z,11.75
2019-03-26T13:58:44.225Z,11.33
2019-03-26T14:01:20.805Z,11.66
2019-03-26T14:03:55.935Z,11.77
2019-03-26T14:06:32.421Z,11.75
2019-03-26T14:09:07.446Z,11.38
2019-03-26T14:11:41.915Z,12.75
2019-03-26T14:14:16.721Z,11.68
2019-03-26T14:16:52.053Z,11.55
2019-03-26T14:19:27.177Z,10.70
2019-03-26T14:22:01.925Z,14.25
2019-03-26T14:24:37.347Z,12.85
2019-03-26T14:27:12.496Z,12.35
2019-03-26T14:29:48.590Z,10.65
2019-03-26T14:32:24.499Z,11.83
2019-03-26T14:35:00.787Z,10.80
2019-03-26T14:37:45.641Z,10.32
2019-03-26T14:40:12.464Z,10.43
2019-03-26T14:42:48.009Z,10.50
2019-03-26T14:45:23.189Z,10.30
2019-03-26T14:47:58.429Z,11.53
2019-03-26T14:50:33.199Z,11.17
2019-03-26T14:53:08.204Z,10.73
2019-03-26T14:55:43.967Z,11.80
2019-03-26T14:58:18.963Z,12.25
2019-03-26T15:00:54.543Z,12.17
2019-03-26T15:03:30.082Z,11.35
2019-03-26T15:06:04.654Z,11.73
2019-03-26T15:08:40.079Z,12.35
2019-03-26T15:11:15.359Z,11.73
2019-03-26T15:13:50.547Z,11.53
2019-03-26T15:16:25.721Z,10.50
2019-03-26T15:19:00.847Z,10.95
2019-03-26T15:21:35.672Z,12.10
2019-03-26T15:24:10.806Z,11.38
2019-03-26T15:26:46.339Z,10.63
2019-03-26T15:29:21.152Z,11.70
2019-03-26T15:31:56.088Z,10.38
2019-03-26T15:34:36.350Z,11.03
2019-03-26T15:37:08.262Z,10.50
2019-03-26T15:39:43.314Z,9.67
2019-03-26T15:42:19.045Z,10.27
2019-03-26T15:44:53.999Z,10.70
2019-03-26T15:47:29.240Z,10.40
2019-03-26T15:50:07.882Z,10.43
2019-03-26T15:52:42.980Z,10.47
2019-03-26T15:55:17.736Z,10.10
2019-03-26T15:57:59.694Z,12.57
2019-03-26T16:00:33.841Z,9.83
2019-03-26T16:03:09.292Z,14.50
2019-03-26T16:05:44.465Z,9.58
2019-03-26T16:08:19.459Z,10.50
2019-03-26T16:10:54.857Z,10.23
2019-03-26T16:13:29.935Z,11.70
2019-03-26T16:16:04.792Z,10.63
2019-03-26T16:18:39.899Z,10.50
2019-03-26T16:21:15.285Z,10.90
2019-03-26T16:23:51.062Z,10.27
2019-03-26T16:26:26.263Z,10.40
2019-03-26T16:29:01.165Z,9.53
2019-03-26T16:31:36.400Z,11.07
2019-03-26T16:34:11.539Z,10.90
2019-03-26T16:36:58.842Z,10.48
2019-03-26T16:39:23.472Z,10.40
2019-03-26T16:41:58.808Z,9.97
2019-03-26T16:44:33.974Z,10.40
2019-03-26T16:47:09.411Z,10.15
2019-03-26T16:49:44.359Z,9.97
2019-03-26T16:52:20.231Z,9.63
2019-03-26T16:54:55.047Z,9.67
2019-03-26T16:57:29.679Z,10.27
2019-03-26T17:00:05.234Z,8.78
2019-03-26T17:02:40.509Z,9.23
2019-03-26T17:05:15.206Z,9.47
2019-03-26T17:07:50.383Z,9.97
2019-03-26T17:10:25.179Z,10.23
2019-03-26T17:13:00.514Z,10.45
2019-03-26T17:15:35.844Z,10.98
2019-03-26T17:18:10.999Z,9.65
2019-03-26T17:20:46.036Z,10.32
2019-03-26T17:23:20.947Z,9.87
2019-03-26T17:25:56.239Z,9.08
2019-03-26T17:28:31.702Z,9.75
2019-03-26T17:31:06.384Z,10.60
2019-03-26T17:33:41.490Z,10.35
2019-03-26T17:36:16.792Z,10.80
2019-03-26T17:38:51.936Z,10.00
2019-03-26T17:41:27.692Z,9.37
2019-03-26T17:44:03.040Z,9.37
2019-03-26T17:46:38.133Z,8.97
2019-03-26T17:49:14.467Z,9.85
2019-03-26T17:51:49.823Z,10.23
2019-03-26T17:54:25.164Z,9.38
2019-03-26T17:57:00.544Z,9.87
2019-03-26T17:59:36.122Z,10.77
2019-03-26T18:02:11.839Z,10.28
2019-03-26T18:04:47.117Z,9.63
2019-03-26T18:07:22.397Z,9.77
2019-03-26T18:09:58.286Z,10.03
2019-03-26T18:12:33.863Z,10.58
2019-03-26T18:15:09.027Z,9.38
2019-03-26T18:17:44.240Z,9.78
2019-03-26T18:20:31.838Z,10.53
2019-03-26T18:22:55.219Z,10.70
2019-03-26T18:25:30.898Z,10.77
2019-03-26T18:28:06.233Z,10.53
2019-03-26T18:30:41.279Z,12.43
2019-03-26T18:33:16.724Z,14.13
2019-03-26T18:35:51.670Z,11.33
2019-03-26T18:38:26.720Z,11.23
2019-03-26T18:41:01.682Z,11.67
2019-03-26T18:43:36.786Z,9.95
2019-03-26T18:46:12.009Z,10.80
2019-03-26T18:48:47.542Z,10.82
2019-03-26T18:51:22.423Z,11.40
2019-03-26T18:53:57.863Z,11.50
2019-03-26T18:56:33.166Z,11.60
2019-03-26T18:59:08.324Z,11.13
2019-03-26T19:01:43.578Z,10.90
2019-03-26T19:04:34.079Z,10.35
2019-03-26T19:07:09.515Z,10.28
2019-03-26T19:09:44.467Z,10.70
2019-03-26T19:12:19.470Z,10.43
2019-03-26T19:14:54.662Z,10.43
2019-03-26T19:17:29.583Z,9.57
2019-03-26T19:20:04.262Z,9.73
2019-03-26T19:22:39.590Z,10.10
2019-03-26T19:25:14.764Z,10.10
2019-03-26T19:27:49.967Z,9.97
2019-03-26T19:30:25.308Z,11.33
2019-03-26T19:33:00.632Z,9.83
2019-03-26T19:35:35.890Z,10.05
2019-03-26T19:38:11.140Z,8.90
2019-03-26T19:40:46.189Z,9.63
2019-03-26T19:43:22.158Z,9.50
2019-03-26T19:45:57.244Z,9.70
2019-03-26T19:48:32.174Z,10.23
2019-03-26T19:51:08.423Z,10.30
2019-03-26T19:53:43.128Z,9.43
2019-03-26T19:56:18.213Z,10.20
2019-03-26T19:58:53.528Z,9.90
2019-03-26T20:01:28.707Z,9.68
2019-03-26T20:04:04.032Z,8.73
2019-03-26T20:06:39.013Z,10.03
2019-03-26T20:09:14.131Z,9.87
2019-03-26T20:11:49.061Z,10.37
2019-03-26T20:14:23.927Z,10.40
2019-03-26T20:16:59.424Z,9.70
2019-03-26T20:19:35.392Z,10.30
2019-03-26T20:22:09.886Z,9.40
2019-03-26T20:24:45.391Z,10.80
2019-03-26T20:27:21.060Z,9.70
2019-03-26T20:29:55.978Z,10.20
2019-03-26T20:32:31.287Z,11.53
2019-03-26T20:35:06.509Z,10.20
2019-03-26T20:37:41.196Z,10.47
2019-03-26T20:40:16.150Z,10.93
2019-03-26T20:42:51.609Z,11.33
2019-03-26T20:45:26.723Z,12.20
2019-03-26T20:48:02.078Z,11.17
2019-03-26T20:50:37.706Z,10.17
2019-03-26T20:53:12.580Z,10.33
2019-03-26T20:55:54.191Z,10.80
2019-03-26T20:58:24.621Z,10.37
2019-03-26T21:00:59.940Z,10.53
2019-03-26T21:03:35.176Z,10.83
2019-03-26T21:06:10.636Z,9.67
2019-03-26T21:08:46.371Z,11.07
2019-03-26T21:11:21.626Z,11.07
2019-03-26T21:13:57.106Z,9.33
2019-03-26T21:16:32.709Z,9.97
2019-03-26T21:19:07.635Z,9.23
2019-03-26T21:21:43.123Z,10.03
2019-03-26T21:24:18.020Z,9.50
2019-03-26T21:26:53.204Z,10.40
2019-03-26T21:29:28.112Z,10.50
2019-03-26T21:32:03.145Z,9.80
2019-03-26T21:34:38.493Z,9.73
2019-03-26T21:37:13.790Z,10.65
2019-03-26T21:39:49.430Z,10.40
2019-03-26T21:42:24.253Z,10.50
2019-03-26T21:44:59.742Z,9.97
2019-03-26T21:47:34.809Z,9.90
2019-03-26T21:50:10.473Z,10.07
2019-03-26T21:52:46.017Z,9.30
2019-03-26T21:55:21.124Z,11.00
2019-03-26T21:57:56.849Z,10.13
2019-03-26T22:00:31.702Z,10.63
2019-03-26T22:03:06.503Z,10.17
2019-03-26T22:05:41.839Z,9.93
2019-03-26T22:08:16.937Z,11.70
2019-03-26T22:10:52.163Z,11.10
2019-03-26T22:13:27.813Z,11.27
2019-03-26T22:16:02.976Z,10.37
2019-03-26T22:18:38.547Z,10.72
2019-03-26T22:21:14.963Z,11.27
2019-03-26T22:23:50.457Z,11.25
2019-03-26T22:26:25.152Z,9.97
2019-03-26T22:29:00.240Z,10.73
2019-03-26T22:31:35.263Z,10.20
2019-03-26T22:34:10.323Z,10.47
2019-03-26T22:36:45.821Z,10.30
2019-03-26T22:39:20.623Z,10.70
2019-03-26T22:41:55.574Z,10.53
2019-03-26T22:44:31.906Z,10.53
2019-03-26T22:47:07.278Z,10.43
2019-03-26T22:49:42.598Z,10.33
2019-03-26T22:52:17.454Z,10.93
2019-03-26T22:54:52.530Z,10.43
2019-03-26T22:57:27.975Z,10.23
2019-03-26T23:00:03.078Z,10.50
2019-03-26T23:02:39.047Z,10.87
2019-03-26T23:05:14.017Z,9.93
2019-03-26T23:07:49.075Z,10.70
2019-03-26T23:10:24.219Z,9.93
2019-03-26T23:12:59.883Z,10.10
2019-03-26T23:15:35.018Z,9.63
2019-03-26T23:18:10.275Z,9.90
2019-03-26T23:20:44.989Z,12.30
2019-03-26T23:23:19.923Z,9.47
2019-03-26T23:25:54.916Z,9.83
2019-03-26T23:28:30.472Z,9.83
2019-03-26T23:31:05.697Z,9.77
2019-03-26T23:33:40.787Z,10.40
2019-03-26T23:36:16.258Z,9.73
2019-03-26T23:38:51.227Z,9.63
2019-03-26T23:41:42.374Z,9.77
2019-03-26T23:44:25.629Z,8.93
2019-03-26T23:46:54.831Z,10.20
2019-03-26T23:49:29.936Z,10.30
2019-03-26T23:52:05.321Z,11.57
2019-03-26T23:54:40.716Z,11.73
2019-03-26T23:57:15.340Z,10.43
2019-03-26T23:59:50.470Z,10.73
